Time;durP1;ratioP1;P1;durP2;ratioP2;P2;SDS_P1;SDS_P2;PMS_P1;PMS_P2;Temp;Humidity;BMP_temperature;BMP_pressure;BME280_temperature;BME280_humidity;BME280_pressure;Samples;Min_cycle;Max_cycle;Signal;HPM_P1;HPM_P2
2021/12/24 00:01:27;;;;;;;44.07;19.90;;;4.00;99.90;;;;;;4161536;28;20523;-83
2021/12/24 00:03:30;;;;;;;45.50;19.70;;;4.00;99.90;;;;;;4157750;28;20532;-83
2021/12/24 00:05:33;;;;;;;43.80;18.40;;;4.10;99.90;;;;;;4163020;28;20461;-84
2021/12/24 00:07:35;;;;;;;43.57;18.27;;;4.10;99.90;;;;;;4163087;28;20519;-83
2021/12/24 00:09:38;;;;;;;46.83;19.43;;;4.10;99.90;;;;;;4163339;28;20461;-83
2021/12/24 00:11:40;;;;;;;46.03;19.33;;;4.10;99.90;;;;;;4163341;28;20839;-85
2021/12/24 00:13:45;;;;;;;44.53;19.00;;;4.10;99.90;;;;;;4162943;28;20491;-84
2021/12/24 00:15:53;;;;;;;41.87;18.47;;;4.20;99.90;;;;;;4164293;28;20541;-85
2021/12/24 00:18:02;;;;;;;44.53;19.07;;;4.10;99.90;;;;;;4163637;28;20950;-85
2021/12/24 00:20:26;;;;;;;46.07;18.87;;;4.10;99.90;;;;;;4163332;28;20466;-85
2021/12/24 00:36:26;;;;;;;44.67;19.03;;;4.30;99.90;;;;;;4162916;28;20685;-86
2021/12/24 00:38:28;;;;;;;41.90;18.27;;;4.40;99.90;;;;;;4163065;28;20798;-85
2021/12/24 00:40:31;;;;;;;42.37;18.83;;;4.40;99.90;;;;;;4161546;28;20450;-85
2021/12/24 00:42:34;;;;;;;46.10;18.67;;;4.40;99.90;;;;;;4162762;28;20543;-85
2021/12/24 00:44:36;;;;;;;43.97;18.83;;;4.50;99.90;;;;;;4161456;28;20467;-86
2021/12/24 00:46:37;;;;;;;45.13;19.07;;;4.50;99.90;;;;;;4155157;28;20489;-86
2021/12/24 00:48:39;;;;;;;44.50;18.50;;;4.50;99.90;;;;;;4165385;28;20470;-86
2021/12/24 00:50:54;;;;;;;42.53;18.10;;;4.50;99.90;;;;;;4165236;28;20478;-85
2021/12/24 00:53:02;;;;;;;37.87;17.17;;;4.50;99.90;;;;;;4165264;28;20438;-85
2021/12/24 00:55:06;;;;;;;38.10;16.27;;;4.50;99.90;;;;;;4165009;28;20892;-86
2021/12/24 00:57:07;;;;;;;37.23;16.77;;;4.60;99.90;;;;;;4166092;28;20764;-85
2021/12/24 00:59:09;;;;;;;37.93;16.00;;;4.60;99.90;;;;;;4179538;28;20437;-86
2021/12/24 01:01:14;;;;;;;37.70;17.00;;;4.60;99.90;;;;;;4167889;28;20469;-86
2021/12/24 01:03:15;;;;;;;36.50;16.47;;;4.60;99.90;;;;;;4167097;28;20490;-86
2021/12/24 01:05:18;;;;;;;35.30;15.17;;;4.80;99.90;;;;;;4169026;28;20430;-86
2021/12/24 01:07:20;;;;;;;32.17;15.10;;;4.60;99.90;;;;;;4167830;28;20454;-86
2021/12/24 01:09:23;;;;;;;36.10;15.27;;;4.90;99.90;;;;;;4167957;28;20515;-86
2021/12/24 01:11:27;;;;;;;29.80;13.93;;;4.60;99.90;;;;;;4157553;28;20466;-86
2021/12/24 01:13:30;;;;;;;34.57;15.17;;;4.60;99.90;;;;;;4161590;28;20513;-87
2021/12/24 01:15:34;;;;;;;31.00;13.83;;;4.80;99.90;;;;;;4167300;28;20453;-86
2021/12/24 01:17:42;;;;;;;32.97;15.33;;;4.70;99.90;;;;;;4167362;28;21121;-86
2021/12/24 01:19:47;;;;;;;30.73;13.80;;;4.70;99.90;;;;;;4167824;28;20910;-87
2021/12/24 01:22:11;;;;;;;32.40;14.10;;;4.80;99.90;;;;;;4167782;28;20457;-87
2021/12/24 01:24:18;;;;;;;30.00;13.47;;;4.70;99.90;;;;;;4167598;28;20821;-87
2021/12/24 01:26:33;;;;;;;28.33;13.43;;;4.80;99.90;;;;;;4167748;28;20453;-86
2021/12/24 01:28:49;;;;;;;28.73;13.17;;;4.80;99.90;;;;;;4167650;28;20536;-86
2021/12/24 01:38:10;;;;;;;30.30;14.20;;;4.90;99.90;;;;;;4165752;28;20881;-87
2021/12/24 01:40:23;;;;;;;29.03;13.83;;;4.90;99.90;;;;;;4148754;28;20455;-87
2021/12/24 01:42:42;;;;;;;27.67;14.60;;;4.90;99.90;;;;;;4151781;28;20489;-87
2021/12/24 01:44:44;;;;;;;31.77;14.53;;;5.00;99.90;;;;;;4153624;28;21069;-87
2021/12/24 01:46:45;;;;;;;30.63;15.13;;;5.00;99.90;;;;;;4161447;28;20536;-87
2021/12/24 01:48:47;;;;;;;28.57;13.83;;;5.00;99.90;;;;;;4165274;28;20462;-87
2021/12/24 01:50:50;;;;;;;54.90;16.37;;;5.00;99.90;;;;;;4164313;28;20458;-87
2021/12/24 01:52:54;;;;;;;31.63;15.57;;;5.00;99.90;;;;;;4163202;28;20470;-88
2021/12/24 01:54:55;;;;;;;34.27;16.10;;;5.10;99.90;;;;;;4165720;28;20484;-87
2021/12/24 01:56:58;;;;;;;36.20;16.37;;;5.10;99.90;;;;;;4165678;28;20453;-87
2021/12/24 01:59:01;;;;;;;32.77;15.53;;;5.10;99.90;;;;;;4166575;28;20805;-87
2021/12/24 02:01:03;;;;;;;33.47;14.97;;;5.10;99.90;;;;;;4162398;28;20487;-87
2021/12/24 02:03:06;;;;;;;30.30;15.37;;;5.10;99.90;;;;;;4156557;28;20541;-87
2021/12/24 02:05:08;;;;;;;29.93;14.53;;;5.10;99.90;;;;;;4148116;28;20658;-87
2021/12/24 02:07:10;;;;;;;34.37;16.63;;;5.10;99.90;;;;;;4147690;28;20510;-87
2021/12/24 02:09:13;;;;;;;32.73;15.83;;;5.10;99.90;;;;;;4148839;28;20463;-87
2021/12/24 02:11:15;;;;;;;33.90;16.17;;;5.10;99.90;;;;;;4153816;28;20592;-87
2021/12/24 02:13:17;;;;;;;33.40;15.73;;;5.10;99.90;;;;;;4155938;28;20475;-87
2021/12/24 02:15:29;;;;;;;34.23;16.10;;;5.10;99.90;;;;;;4148101;28;20494;-87
2021/12/24 02:29:06;;;;;;;29.27;14.87;;;5.20;99.90;;;;;;4183013;28;20813;-86
2021/12/24 02:31:10;;;;;;;25.97;14.23;;;5.20;99.90;;;;;;4173778;28;20453;-85
2021/12/24 02:33:13;;;;;;;30.03;14.77;;;5.20;99.90;;;;;;4170814;28;20469;-85
2021/12/24 02:35:14;;;;;;;28.23;14.23;;;5.20;99.90;;;;;;4171771;28;20868;-85
2021/12/24 02:37:18;;;;;;;29.80;14.40;;;5.30;99.90;;;;;;4175042;28;20945;-85
2021/12/24 02:39:20;;;;;;;26.97;13.73;;;5.30;99.90;;;;;;4175767;28;20485;-86
2021/12/24 02:41:21;;;;;;;27.37;14.70;;;5.30;99.90;;;;;;4168217;28;20475;-86
2021/12/24 02:43:25;;;;;;;30.00;15.43;;;5.30;99.90;;;;;;4176437;28;20498;-85
2021/12/24 02:45:29;;;;;;;28.47;14.67;;;5.30;99.90;;;;;;4181433;28;20450;-85
2021/12/24 02:47:43;;;;;;;29.13;15.00;;;5.30;99.90;;;;;;4181154;28;20458;-85
2021/12/24 02:54:21;;;;;;;28.50;14.97;;;5.30;99.90;;;;;;4165792;28;20457;-84
2021/12/24 02:56:25;;;;;;;29.00;15.47;;;5.30;99.90;;;;;;4169028;28;20434;-84
2021/12/24 02:58:27;;;;;;;27.40;14.80;;;5.30;99.90;;;;;;4171210;28;20496;-84
2021/12/24 03:00:29;;;;;;;29.40;14.57;;;5.40;99.90;;;;;;4162967;28;20467;-84
2021/12/24 03:02:31;;;;;;;27.40;14.27;;;5.40;99.90;;;;;;4165760;28;20552;-84
2021/12/24 03:04:33;;;;;;;28.73;15.07;;;5.40;99.90;;;;;;4158659;28;20475;-84
2021/12/24 03:06:39;;;;;;;26.90;14.60;;;5.40;99.90;;;;;;4158664;28;21015;-84
2021/12/24 03:08:40;;;;;;;26.97;14.10;;;5.40;99.90;;;;;;4166521;28;20467;-85
2021/12/24 03:10:43;;;;;;;26.43;14.37;;;5.50;99.90;;;;;;4166483;28;20462;-85
2021/12/24 03:12:47;;;;;;;31.57;15.67;;;5.50;99.90;;;;;;4163067;28;20498;-85
2021/12/24 03:14:49;;;;;;;27.87;15.40;;;5.50;99.90;;;;;;4161655;28;20482;-85
2021/12/24 03:16:57;;;;;;;24.53;13.77;;;5.50;99.90;;;;;;4154922;28;20510;-85
2021/12/24 03:18:58;;;;;;;24.43;13.87;;;5.50;99.90;;;;;;4155114;28;20478;-85
2021/12/24 03:21:06;;;;;;;26.17;14.10;;;5.50;99.90;;;;;;4164966;28;20535;-85
2021/12/24 03:23:21;;;;;;;26.83;13.60;;;5.50;99.90;;;;;;4164842;28;20482;-84
2021/12/24 03:25:24;;;;;;;26.13;13.50;;;5.60;99.90;;;;;;4161533;28;20484;-86
2021/12/24 03:27:27;;;;;;;24.27;12.57;;;5.50;99.90;;;;;;4165039;28;21032;-86
2021/12/24 03:29:29;;;;;;;27.43;14.70;;;5.70;99.90;;;;;;4157539;28;20472;-85
2021/12/24 03:31:31;;;;;;;27.40;13.63;;;5.60;99.90;;;;;;4163568;28;20462;-84
2021/12/24 03:33:34;;;;;;;24.30;12.70;;;5.50;99.90;;;;;;4154034;28;20528;-85
2021/12/24 03:35:36;;;;;;;26.80;13.33;;;5.60;99.90;;;;;;4165574;28;20516;-85
2021/12/24 03:37:38;;;;;;;24.20;12.77;;;5.60;99.90;;;;;;4165605;28;20462;-85
2021/12/24 03:39:39;;;;;;;23.60;12.13;;;5.60;99.90;;;;;;4164940;28;20508;-86
2021/12/24 03:41:41;;;;;;;25.73;13.47;;;5.60;99.90;;;;;;4159889;28;20826;-85
2021/12/24 03:43:45;;;;;;;24.17;12.57;;;5.60;99.90;;;;;;4170700;28;20493;-85
2021/12/24 03:45:57;;;;;;;23.13;12.50;;;5.60;99.90;;;;;;4168461;28;20679;-85
2021/12/24 03:48:02;;;;;;;23.87;12.80;;;5.60;99.90;;;;;;4148696;28;20506;-86
2021/12/24 03:50:09;;;;;;;25.10;13.30;;;5.60;99.90;;;;;;4159920;28;20496;-85
2021/12/24 03:52:33;;;;;;;26.03;13.20;;;5.70;99.90;;;;;;4163882;28;20481;-85
2021/12/24 03:56:54;;;;;;;26.40;13.87;;;5.70;99.90;;;;;;4174990;28;20487;-86
2021/12/24 03:58:57;;;;;;;27.20;13.50;;;5.70;99.90;;;;;;4178047;28;20473;-86
2021/12/24 04:00:59;;;;;;;24.13;13.10;;;5.80;99.90;;;;;;4180420;28;20461;-85
2021/12/24 04:03:00;;;;;;;26.67;13.43;;;5.70;99.90;;;;;;4181252;28;20501;-85
2021/12/24 04:05:02;;;;;;;25.00;13.13;;;5.80;99.90;;;;;;4180292;28;20465;-86
2021/12/24 04:07:06;;;;;;;25.17;13.47;;;5.70;99.90;;;;;;4162869;28;20470;-86
2021/12/24 04:09:09;;;;;;;24.90;13.50;;;5.70;99.90;;;;;;4153711;28;20884;-86
2021/12/24 04:11:10;;;;;;;28.00;14.53;;;5.80;99.90;;;;;;4164056;28;20465;-86
2021/12/24 04:13:15;;;;;;;22.73;12.03;;;5.80;99.90;;;;;;4163901;28;20510;-86
2021/12/24 04:15:18;;;;;;;25.20;13.77;;;5.80;99.90;;;;;;4157865;28;20499;-84
2021/12/24 04:17:20;;;;;;;27.47;14.27;;;5.80;99.90;;;;;;4158824;28;20478;-86
2021/12/24 04:26:17;;;;;;;28.27;15.60;;;5.80;99.90;;;;;;4151475;28;21013;-87
2021/12/24 04:28:18;;;;;;;33.23;16.43;;;5.80;99.90;;;;;;4162872;28;20462;-86
2021/12/24 04:30:26;;;;;;;28.63;15.13;;;5.80;99.90;;;;;;4163998;28;20834;-87
2021/12/24 04:32:39;;;;;;;24.80;13.70;;;5.80;99.90;;;;;;4166740;28;20983;-87
2021/12/24 04:34:44;;;;;;;29.30;14.90;;;5.90;99.90;;;;;;4164573;28;20487;-87
2021/12/24 04:37:12;;;;;;;26.57;13.53;;;5.90;99.90;;;;;;4166500;28;20846;-87
2021/12/24 04:39:35;;;;;;;24.93;12.60;;;5.90;99.90;;;;;;4166438;28;20451;-87
2021/12/24 04:51:11;;;;;;;20.37;11.03;;;6.10;99.90;;;;;;4132024;28;20442;-86
2021/12/24 05:01:13;;;;;;;25.73;12.57;;;6.10;99.90;;;;;;4155291;28;20463;-87
2021/12/24 05:02:55;;;;;;;22.80;11.97;;;6.20;99.90;;;;;;4163582;28;20496;-87
2021/12/24 05:05:07;;;;;;;25.47;12.93;;;6.20;99.90;;;;;;4167105;28;20486;-88
2021/12/24 05:07:21;;;;;;;25.00;12.97;;;6.20;99.90;;;;;;4165940;28;20959;-87
2021/12/24 05:09:25;;;;;;;24.73;13.10;;;6.30;99.90;;;;;;4165332;28;20454;-87
2021/12/24 05:11:27;;;;;;;28.00;14.83;;;6.30;99.90;;;;;;4166233;28;20462;-87
2021/12/24 05:13:28;;;;;;;35.80;15.30;;;6.30;99.90;;;;;;4166108;28;20475;-87
2021/12/24 05:15:31;;;;;;;32.83;15.47;;;6.30;99.90;;;;;;4166971;28;20514;-88
2021/12/24 05:17:47;;;;;;;31.10;15.77;;;6.30;99.90;;;;;;4166514;28;20633;-89
2021/12/24 05:22:10;;;;;;;33.00;16.60;;;6.40;99.90;;;;;;4166211;28;20442;-89
2021/12/24 05:24:14;;;;;;;35.10;16.63;;;6.40;99.90;;;;;;4165462;28;20502;-88
2021/12/24 05:26:18;;;;;;;33.37;16.27;;;6.40;99.90;;;;;;4165525;28;20794;-89
2021/12/24 05:28:21;;;;;;;34.17;16.60;;;6.40;99.90;;;;;;4166597;28;20529;-89
2021/12/24 05:30:23;;;;;;;35.30;17.57;;;6.40;99.90;;;;;;4165935;28;20468;-89
2021/12/24 05:32:25;;;;;;;38.53;18.13;;;6.50;99.90;;;;;;4165441;28;20460;-88
2021/12/24 05:34:27;;;;;;;37.97;16.77;;;6.50;99.90;;;;;;4165411;28;20486;-88
2021/12/24 05:36:30;;;;;;;37.57;17.77;;;6.50;99.90;;;;;;4165628;28;20513;-89
2021/12/24 05:38:32;;;;;;;41.03;18.40;;;6.60;99.90;;;;;;4165513;28;20438;-88
2021/12/24 05:40:33;;;;;;;36.10;17.70;;;6.50;99.90;;;;;;4165925;28;20816;-88
2021/12/24 05:42:35;;;;;;;35.07;16.93;;;6.60;99.90;;;;;;4164317;28;20792;-89
2021/12/24 05:44:37;;;;;;;36.63;17.37;;;6.50;99.90;;;;;;4165064;28;20995;-88
2021/12/24 05:46:40;;;;;;;39.27;18.57;;;6.60;99.90;;;;;;4165439;28;20485;-88
2021/12/24 05:48:42;;;;;;;37.03;17.10;;;6.60;99.90;;;;;;4165896;28;20464;-88
2021/12/24 05:50:44;;;;;;;36.93;18.53;;;6.60;99.90;;;;;;4165904;28;20450;-88
2021/12/24 05:52:47;;;;;;;35.37;17.67;;;6.60;99.90;;;;;;4166024;28;20995;-88
2021/12/24 05:54:49;;;;;;;34.47;17.53;;;6.60;99.90;;;;;;4165176;28;20461;-88
2021/12/24 05:56:50;;;;;;;34.70;16.73;;;6.60;99.90;;;;;;4166080;28;20448;-88
2021/12/24 05:58:52;;;;;;;36.27;17.50;;;6.50;99.90;;;;;;4165989;28;20944;-88
2021/12/24 06:00:54;;;;;;;34.63;17.63;;;6.60;99.90;;;;;;4165981;28;20503;-88
2021/12/24 06:02:56;;;;;;;40.23;18.27;;;6.60;99.90;;;;;;4165461;28;20510;-88
2021/12/24 06:04:57;;;;;;;34.00;17.27;;;6.70;99.90;;;;;;4165462;28;20504;-88
2021/12/24 06:06:59;;;;;;;32.20;16.30;;;6.70;99.90;;;;;;4165583;28;20498;-89
2021/12/24 06:09:02;;;;;;;32.40;16.30;;;6.70;99.90;;;;;;4166228;28;20503;-88
2021/12/24 06:11:04;;;;;;;31.90;15.90;;;6.70;99.90;;;;;;4165796;28;20525;-88
2021/12/24 06:13:06;;;;;;;30.27;16.60;;;6.70;99.90;;;;;;4165875;28;20489;-88
2021/12/24 06:15:09;;;;;;;33.43;16.43;;;6.70;99.90;;;;;;4165660;28;20514;-88
2021/12/24 06:17:15;;;;;;;28.90;15.57;;;6.70;99.90;;;;;;4157207;28;20469;-89
2021/12/24 06:19:18;;;;;;;29.90;15.37;;;6.80;99.90;;;;;;4149161;28;20464;-88
2021/12/24 06:21:20;;;;;;;31.07;15.43;;;6.80;99.90;;;;;;4148473;28;20461;-89
2021/12/24 06:23:24;;;;;;;34.00;15.67;;;6.80;99.90;;;;;;4148548;28;20500;-89
2021/12/24 06:25:27;;;;;;;27.67;14.40;;;6.80;99.90;;;;;;4149609;28;20970;-90
2021/12/24 06:27:30;;;;;;;25.70;13.53;;;6.70;99.90;;;;;;4149458;28;20467;-88
2021/12/24 06:29:32;;;;;;;30.93;15.57;;;6.80;99.90;;;;;;4156090;28;20558;-88
2021/12/24 06:31:33;;;;;;;31.43;15.77;;;7.10;99.90;;;;;;4161639;28;20854;-88
2021/12/24 06:33:35;;;;;;;31.73;14.40;;;7.00;99.90;;;;;;4163773;28;20488;-88
2021/12/24 06:35:38;;;;;;;31.07;14.37;;;6.90;99.90;;;;;;4150149;28;20461;-88
2021/12/24 06:37:40;;;;;;;26.00;13.80;;;6.90;99.90;;;;;;4151170;28;20892;-89
2021/12/24 06:39:42;;;;;;;25.83;14.40;;;6.90;99.90;;;;;;4154181;28;20887;-89
2021/12/24 06:41:45;;;;;;;30.00;14.27;;;6.80;99.90;;;;;;4159896;28;20461;-89
2021/12/24 06:43:47;;;;;;;27.37;13.47;;;6.90;99.90;;;;;;4165590;28;20487;-91
2021/12/24 06:45:49;;;;;;;24.47;13.20;;;7.00;99.90;;;;;;4166924;28;20463;-90
2021/12/24 06:47:52;;;;;;;24.90;13.33;;;7.00;99.90;;;;;;4165843;28;20487;-89
2021/12/24 06:49:54;;;;;;;23.73;13.03;;;7.00;99.90;;;;;;4155552;28;20474;-89
2021/12/24 06:51:56;;;;;;;22.97;13.00;;;7.00;99.90;;;;;;4152506;28;20806;-88
2021/12/24 06:53:57;;;;;;;25.90;12.77;;;7.00;99.90;;;;;;4150090;28;20476;-88
2021/12/24 06:55:59;;;;;;;23.37;11.83;;;7.00;99.90;;;;;;4149019;28;20454;-88
2021/12/24 06:58:03;;;;;;;22.70;11.70;;;7.00;99.90;;;;;;4148478;28;20500;-88
2021/12/24 07:00:06;;;;;;;23.07;12.07;;;7.00;99.90;;;;;;4149132;28;20456;-88
2021/12/24 07:02:09;;;;;;;23.00;12.03;;;7.00;99.90;;;;;;4149349;28;20479;-89
2021/12/24 07:04:11;;;;;;;23.10;12.03;;;7.00;99.90;;;;;;4148420;28;21116;-89
2021/12/24 07:06:12;;;;;;;21.73;11.67;;;7.00;99.90;;;;;;4148720;28;20445;-88
2021/12/24 07:08:14;;;;;;;19.33;10.90;;;7.00;99.90;;;;;;4149284;28;20499;-89
2021/12/24 07:10:16;;;;;;;21.63;11.03;;;7.00;99.90;;;;;;4149469;28;20526;-88
2021/12/24 07:12:18;;;;;;;18.70;10.60;;;7.00;99.90;;;;;;4168307;28;20462;-88
2021/12/24 07:14:23;;;;;;;18.53;9.97;;;7.10;99.90;;;;;;4180641;28;20488;-88
2021/12/24 07:16:25;;;;;;;23.90;10.60;;;7.10;99.90;;;;;;4181290;28;20491;-88
2021/12/24 07:18:26;;;;;;;17.60;10.10;;;7.10;99.90;;;;;;4169371;28;20444;-88
2021/12/24 07:20:28;;;;;;;19.67;9.87;;;7.10;99.90;;;;;;4164913;28;20461;-90
2021/12/24 07:22:31;;;;;;;16.57;9.43;;;7.10;99.90;;;;;;4165034;28;20453;-89
2021/12/24 07:24:33;;;;;;;15.60;8.67;;;7.20;99.90;;;;;;4165450;28;20557;-88
2021/12/24 07:26:35;;;;;;;16.87;9.07;;;7.20;99.90;;;;;;4165323;28;20468;-88
2021/12/24 07:28:37;;;;;;;18.83;9.93;;;7.10;99.90;;;;;;4165420;28;20463;-88
2021/12/24 07:30:40;;;;;;;16.20;8.57;;;7.20;99.90;;;;;;4162761;28;20468;-88
2021/12/24 07:32:42;;;;;;;15.10;8.63;;;7.20;99.90;;;;;;4148413;28;20773;-89
2021/12/24 07:34:44;;;;;;;15.70;7.77;;;7.20;99.90;;;;;;4179385;22;21016;-77
2021/12/24 07:36:46;;;;;;;16.40;8.73;;;7.20;99.90;;;;;;4162589;28;20452;-76
2021/12/24 07:38:47;;;;;;;14.80;8.50;;;7.20;99.90;;;;;;4157050;28;20809;-78
2021/12/24 07:40:49;;;;;;;14.73;7.80;;;7.30;99.90;;;;;;4162572;28;20474;-77
2021/12/24 07:42:51;;;;;;;15.87;8.13;;;7.30;99.90;;;;;;4165530;28;20971;-77
2021/12/24 07:44:53;;;;;;;14.13;7.33;;;7.30;99.90;;;;;;4161084;28;20496;-78
2021/12/24 07:47:00;;;;;;;13.33;8.13;;;7.30;99.90;;;;;;4164821;28;20924;-78
2021/12/24 07:49:12;;;;;;;12.20;7.47;;;7.30;99.90;;;;;;4171861;28;20488;-78
2021/12/24 07:53:33;;;;;;;13.40;7.63;;;7.30;99.90;;;;;;4162104;28;20424;-78
2021/12/24 07:55:36;;;;;;;12.70;7.53;;;7.40;99.90;;;;;;4163059;28;20503;-78
2021/12/24 07:57:39;;;;;;;12.07;7.30;;;7.40;99.90;;;;;;4162567;28;20457;-78
2021/12/24 07:59:42;;;;;;;13.07;6.80;;;7.50;99.90;;;;;;4161804;28;20495;-77
2021/12/24 08:01:46;;;;;;;11.53;7.13;;;7.50;99.90;;;;;;4155913;28;20469;-78
2021/12/24 08:03:49;;;;;;;12.07;6.80;;;7.50;99.90;;;;;;4151470;28;20469;-78
2021/12/24 08:05:51;;;;;;;12.33;6.77;;;7.50;99.90;;;;;;4155755;28;20837;-77
2021/12/24 08:07:54;;;;;;;13.37;7.80;;;7.50;99.90;;;;;;4166707;28;20517;-77
2021/12/24 08:09:56;;;;;;;12.77;7.40;;;7.50;99.90;;;;;;4166728;28;21016;-78
2021/12/24 08:11:58;;;;;;;13.60;7.07;;;7.50;99.90;;;;;;4166824;28;20452;-76
2021/12/24 08:14:01;;;;;;;18.80;8.07;;;7.60;99.90;;;;;;4156352;28;20469;-77
2021/12/24 08:16:02;;;;;;;19.07;8.30;;;7.50;99.90;;;;;;4167603;28;20514;-78
2021/12/24 08:18:04;;;;;;;12.30;6.43;;;7.60;99.90;;;;;;4166481;28;20883;-78
2021/12/24 08:20:09;;;;;;;15.17;7.00;;;7.60;99.90;;;;;;4166496;28;20465;-77
2021/12/24 08:22:11;;;;;;;10.77;6.37;;;7.60;99.90;;;;;;4161170;28;20528;-78
2021/12/24 08:24:13;;;;;;;9.77;5.83;;;7.60;99.90;;;;;;4164178;28;20520;-78
2021/12/24 08:26:15;;;;;;;11.33;6.00;;;7.70;99.90;;;;;;4159973;28;20456;-78
2021/12/24 08:28:17;;;;;;;10.00;5.33;;;7.70;99.90;;;;;;4165414;28;20460;-78
2021/12/24 08:30:18;;;;;;;7.77;5.30;;;7.70;99.90;;;;;;4165672;28;20475;-78
2021/12/24 08:32:20;;;;;;;10.70;5.70;;;7.70;99.90;;;;;;4166474;28;20884;-78
2021/12/24 08:34:23;;;;;;;8.13;4.97;;;7.70;99.90;;;;;;4161775;28;21083;-77
2021/12/24 08:36:26;;;;;;;9.67;5.47;;;7.70;99.90;;;;;;4174107;28;20832;-78
2021/12/24 08:38:28;;;;;;;7.10;4.60;;;7.80;99.90;;;;;;4182219;28;20944;-77
2021/12/24 08:40:30;;;;;;;6.87;4.70;;;7.70;99.90;;;;;;4180257;28;20882;-76
2021/12/24 08:42:31;;;;;;;10.90;5.00;;;7.80;99.90;;;;;;4162823;28;20528;-78
2021/12/24 08:44:34;;;;;;;10.83;5.00;;;7.80;99.90;;;;;;4149671;28;20502;-78
2021/12/24 08:46:37;;;;;;;7.17;4.57;;;7.80;99.90;;;;;;4149075;28;20469;-77
2021/12/24 08:48:40;;;;;;;8.33;4.60;;;7.80;99.90;;;;;;4149508;28;20470;-78
2021/12/24 08:50:42;;;;;;;9.77;5.13;;;7.80;99.90;;;;;;4149917;28;20443;-77
2021/12/24 08:52:46;;;;;;;8.33;5.07;;;7.80;99.90;;;;;;4164127;28;20461;-77
2021/12/24 08:54:48;;;;;;;7.67;4.67;;;7.80;99.90;;;;;;4165992;28;21005;-76
2021/12/24 08:56:50;;;;;;;7.57;4.57;;;7.80;99.90;;;;;;4165210;28;21008;-77
2021/12/24 08:58:51;;;;;;;10.20;4.57;;;7.80;99.90;;;;;;4154982;28;20466;-77
2021/12/24 09:00:53;;;;;;;9.40;4.80;;;7.80;99.90;;;;;;4162944;28;20543;-77
2021/12/24 09:02:56;;;;;;;8.50;4.37;;;7.80;99.90;;;;;;4165177;28;20825;-76
2021/12/24 09:04:57;;;;;;;10.67;4.93;;;7.80;99.90;;;;;;4164916;28;20599;-77
2021/12/24 09:06:59;;;;;;;8.33;5.27;;;7.80;99.90;;;;;;4158255;28;20525;-77
2021/12/24 09:09:03;;;;;;;8.57;5.27;;;7.80;99.90;;;;;;4149653;28;20516;-77
2021/12/24 09:11:04;;;;;;;12.23;6.33;;;7.80;99.90;;;;;;4167662;28;20537;-77
2021/12/24 09:13:06;;;;;;;8.27;4.90;;;7.90;99.90;;;;;;4164967;28;20853;-77
2021/12/24 09:15:09;;;;;;;15.77;7.77;;;7.90;99.90;;;;;;4164670;28;20474;-77
2021/12/24 09:17:10;;;;;;;11.67;6.50;;;7.90;99.90;;;;;;4162479;28;20465;-77
2021/12/24 09:19:16;;;;;;;7.40;4.20;;;8.00;99.90;;;;;;4164976;28;20516;-77
2021/12/24 09:21:19;;;;;;;5.80;4.03;;;8.00;99.90;;;;;;4165141;28;20961;-77
2021/12/24 09:23:22;;;;;;;6.87;4.27;;;8.00;99.90;;;;;;4171793;28;20868;-77
2021/12/24 09:25:25;;;;;;;8.00;4.23;;;8.00;99.90;;;;;;4157623;28;20524;-76
2021/12/24 09:27:27;;;;;;;8.23;4.50;;;8.10;99.90;;;;;;4165345;28;20535;-77
2021/12/24 09:29:29;;;;;;;6.80;3.60;;;8.10;99.90;;;;;;4165204;28;20457;-77
2021/12/24 09:31:30;;;;;;;5.20;3.10;;;8.10;99.90;;;;;;4166444;28;20896;-77
2021/12/24 09:33:32;;;;;;;5.47;3.70;;;8.20;99.90;;;;;;4162129;28;20470;-77
2021/12/24 09:35:34;;;;;;;4.27;2.77;;;8.20;99.90;;;;;;4148454;28;20485;-77
2021/12/24 09:37:37;;;;;;;7.17;3.60;;;8.20;99.90;;;;;;4154545;28;21042;-76
2021/12/24 09:39:38;;;;;;;6.80;3.60;;;8.20;99.90;;;;;;4149138;28;20479;-76
2021/12/24 09:41:42;;;;;;;7.80;3.50;;;8.30;99.90;;;;;;4148677;28;20475;-77
2021/12/24 09:43:44;;;;;;;4.77;3.37;;;8.30;99.90;;;;;;4148384;28;20463;-76
2021/12/24 09:45:45;;;;;;;4.97;3.07;;;8.30;99.90;;;;;;4149301;28;20494;-77
2021/12/24 09:47:47;;;;;;;6.30;3.37;;;8.30;99.90;;;;;;4154620;28;20528;-76
2021/12/24 09:49:49;;;;;;;4.63;3.17;;;8.30;99.90;;;;;;4164906;28;20508;-77
2021/12/24 09:51:52;;;;;;;6.07;3.07;;;8.30;99.90;;;;;;4151008;28;20778;-76
2021/12/24 09:53:55;;;;;;;5.03;3.00;;;8.40;99.90;;;;;;4146672;28;20216;-75
2021/12/24 09:55:57;;;;;;;3.93;2.63;;;8.50;99.90;;;;;;4148606;28;20207;-77
2021/12/24 09:58:00;;;;;;;7.27;2.47;;;8.40;99.90;;;;;;4152111;28;20203;-76
2021/12/24 10:00:03;;;;;;;5.13;3.30;;;8.40;99.90;;;;;;4164475;28;20216;-76
2021/12/24 10:02:14;;;;;;;4.17;2.80;;;8.50;99.90;;;;;;4164735;28;20210;-76
2021/12/24 10:04:18;;;;;;;5.37;2.73;;;8.50;99.90;;;;;;4159727;28;20494;-77
2021/12/24 10:06:23;;;;;;;5.20;2.67;;;8.50;99.90;;;;;;4160527;28;20559;-77
2021/12/24 10:08:26;;;;;;;4.50;2.60;;;8.40;99.90;;;;;;4165243;28;20465;-75
2021/12/24 10:10:29;;;;;;;4.43;3.10;;;8.40;99.90;;;;;;4151808;28;20203;-75
2021/12/24 10:12:31;;;;;;;4.67;2.80;;;8.40;99.90;;;;;;4164155;28;20219;-74
2021/12/24 10:14:36;;;;;;;4.83;2.70;;;8.40;99.90;;;;;;4164035;28;20231;-77
2021/12/24 10:16:42;;;;;;;4.60;2.60;;;8.40;99.90;;;;;;4163640;28;20211;-73
2021/12/24 10:18:48;;;;;;;4.07;2.40;;;8.40;99.90;;;;;;4165097;28;20550;-73
2021/12/24 10:20:59;;;;;;;4.10;2.83;;;8.40;99.90;;;;;;4164764;28;20215;-74
2021/12/24 10:23:01;;;;;;;3.70;2.40;;;8.40;99.90;;;;;;4155359;28;20549;-74
2021/12/24 10:25:07;;;;;;;5.80;2.80;;;8.40;99.90;;;;;;4164973;28;20753;-73
2021/12/24 10:27:09;;;;;;;5.50;2.50;;;8.40;99.90;;;;;;4164165;28;20474;-75
2021/12/24 10:29:14;;;;;;;3.70;2.50;;;8.40;99.90;;;;;;4165577;28;20732;-75
2021/12/24 10:31:20;;;;;;;4.37;2.63;;;8.40;99.90;;;;;;4173940;28;20264;-76
2021/12/24 10:33:22;;;;;;;4.90;3.00;;;8.40;99.90;;;;;;4159750;28;20562;-74
2021/12/24 10:35:26;;;;;;;5.77;2.57;;;8.40;99.90;;;;;;4164559;28;20532;-74
2021/12/24 10:37:30;;;;;;;5.13;2.60;;;8.50;99.90;;;;;;4164534;28;20219;-74
2021/12/24 10:39:36;;;;;;;3.97;2.63;;;8.50;99.90;;;;;;4164484;28;20211;-75
2021/12/24 10:41:43;;;;;;;4.37;2.87;;;8.50;99.90;;;;;;4155004;28;20496;-75
2021/12/24 10:43:45;;;;;;;6.17;3.03;;;8.50;99.90;;;;;;4154843;28;20210;-74
2021/12/24 10:45:47;;;;;;;5.30;2.67;;;8.50;99.90;;;;;;4164263;28;20603;-73
2021/12/24 10:47:50;;;;;;;4.40;2.50;;;8.50;99.90;;;;;;4169076;28;20211;-74
2021/12/24 10:52:15;;;;;;;4.30;2.87;;;8.50;99.90;;;;;;4162509;28;20842;-73
2021/12/24 10:54:18;;;;;;;4.97;2.90;;;8.50;99.90;;;;;;4158774;28;20274;-73
2021/12/24 10:56:25;;;;;;;6.53;2.80;;;8.50;99.90;;;;;;4164118;28;20687;-73
2021/12/24 10:58:29;;;;;;;4.60;2.77;;;8.50;99.90;;;;;;4162544;28;20211;-73
2021/12/24 11:00:34;;;;;;;5.93;2.70;;;8.50;99.90;;;;;;4164093;28;20652;-73
2021/12/24 11:02:37;;;;;;;5.30;2.67;;;8.50;99.90;;;;;;4163302;28;20242;-73
2021/12/24 11:04:40;;;;;;;6.00;3.27;;;8.50;99.90;;;;;;4146254;28;20692;-75
2021/12/24 11:06:42;;;;;;;7.27;3.47;;;8.60;99.90;;;;;;4147553;28;20232;-74
2021/12/24 11:08:44;;;;;;;5.47;3.10;;;8.60;99.90;;;;;;4151260;28;20212;-74
2021/12/24 11:10:49;;;;;;;8.60;4.23;;;8.60;99.90;;;;;;4163647;28;20222;-76
2021/12/24 11:12:55;;;;;;;5.57;3.40;;;8.60;99.90;;;;;;4163045;28;20226;-74
2021/12/24 11:15:00;;;;;;;5.40;3.10;;;8.60;99.90;;;;;;4162848;28;20227;-75
2021/12/24 11:17:02;;;;;;;5.90;3.43;;;8.60;99.90;;;;;;4163896;28;20210;-73
2021/12/24 11:19:04;;;;;;;8.43;3.33;;;8.60;99.90;;;;;;4163909;28;20215;-73
2021/12/24 11:21:09;;;;;;;5.03;3.10;;;8.60;99.90;;;;;;4162571;28;20208;-73
2021/12/24 11:23:12;;;;;;;6.00;3.40;;;8.60;99.90;;;;;;4164060;28;20222;-73
2021/12/24 11:25:14;;;;;;;5.87;3.63;;;8.60;99.90;;;;;;4159874;28;20228;-73
2021/12/24 11:27:16;;;;;;;5.47;3.30;;;8.50;99.90;;;;;;4163616;28;20206;-74
2021/12/24 11:29:18;;;;;;;6.70;3.80;;;8.60;99.90;;;;;;4162302;28;20207;-74
2021/12/24 11:31:21;;;;;;;5.70;3.30;;;8.60;99.90;;;;;;4157364;28;20582;-74
2021/12/24 11:33:26;;;;;;;5.70;3.73;;;8.60;99.90;;;;;;4163284;28;20215;-76
2021/12/24 11:35:29;;;;;;;6.20;3.70;;;8.60;99.90;;;;;;4163335;28;20235;-73
2021/12/24 11:37:33;;;;;;;7.77;3.90;;;8.60;99.90;;;;;;4164023;28;20268;-73
2021/12/24 11:39:35;;;;;;;6.53;3.83;;;8.60;99.90;;;;;;4160047;28;20203;-74
2021/12/24 11:41:39;;;;;;;6.17;3.63;;;8.70;99.90;;;;;;4162947;28;20557;-74
2021/12/24 11:43:43;;;;;;;5.40;3.63;;;8.70;99.90;;;;;;4162620;28;20212;-73
2021/12/24 11:45:44;;;;;;;5.53;3.70;;;8.70;99.90;;;;;;4163134;28;20227;-74
2021/12/24 11:47:47;;;;;;;7.43;3.60;;;8.70;99.90;;;;;;4151383;28;20216;-75
2021/12/24 11:49:49;;;;;;;6.90;3.93;;;8.70;99.90;;;;;;4157214;28;20211;-74
2021/12/24 11:51:51;;;;;;;5.37;3.77;;;8.80;99.90;;;;;;4162587;28;20582;-74